Time;durP1;ratioP1;P1;durP2;ratioP2;P2;SDS_P1;SDS_P2;PMS_P1;PMS_P2;Temp;Humidity;BMP_temperature;BMP_pressure;BME280_temperature;BME280_humidity;BME280_pressure;Samples;Min_cycle;Max_cycle;Signal;HPM_P1;HPM_P2
2021/12/02 00:00:04;;;;;;;4.10;0.70;;;;;;;5.16;96.56;97735.78;1937472;84;20211;-79
2021/12/02 00:03:08;;;;;;;4.15;0.88;;;;;;;5.18;96.66;97740.06;1937747;84;20373;-79
2021/12/02 00:06:14;;;;;;;5.54;0.75;;;;;;;5.20;96.78;97738.31;1937625;84;20367;-79
2021/12/02 00:09:16;;;;;;;1.89;0.94;;;;;;;5.23;96.67;97736.59;1937825;84;20340;-79
2021/12/02 00:12:19;;;;;;;4.78;0.69;;;;;;;5.24;96.67;97737.44;1938120;84;20388;-79
2021/12/02 00:15:25;;;;;;;2.47;0.95;;;;;;;5.23;96.58;97739.16;1936966;81;35130;-79
2021/12/02 00:22:01;;;;;;;2.51;0.77;;;;;;;5.27;96.85;97734.84;1937474;84;20341;-79
2021/12/02 00:25:08;;;;;;;5.28;0.80;;;;;;;5.30;96.83;97737.38;1939354;84;20851;-79
2021/12/02 00:28:11;;;;;;;3.91;0.94;;;;;;;5.31;96.80;97733.91;1938390;84;20336;-79
2021/12/02 00:31:16;;;;;;;3.91;1.14;;;;;;;5.33;96.61;97732.19;1936720;81;23230;-79
2021/12/02 00:34:20;;;;;;;5.81;1.14;;;;;;;5.36;96.54;97734.72;1991006;73;21323;-79
2021/12/02 00:37:39;;;;;;;5.25;1.00;;;;;;;5.38;96.38;97730.41;1927190;84;21086;-79
2021/12/02 00:42:11;;;;;;;4.54;0.81;;;;;;;5.40;96.32;97729.56;1928234;84;20879;-78
2021/12/02 00:49:21;;;;;;;5.67;2.18;;;;;;;5.43;95.76;97729.50;1930787;84;20253;-79
2021/12/02 01:01:49;;;;;;;7.41;1.51;;;;;;;5.47;95.23;97726.03;1915075;84;1510003;-80
2021/12/02 01:19:12;;;;;;;6.96;1.33;;;;;;;5.50;94.61;97725.13;1927715;84;20366;-80
2021/12/02 01:28:33;;;;;;;3.92;1.13;;;;;;;5.50;94.49;97726.84;1927793;84;20682;-79
2021/12/02 01:45:15;;;;;;;4.51;1.23;;;;;;;5.27;93.15;97732.25;1934138;84;20999;-79
2021/12/02 01:49:07;;;;;;;9.18;0.93;;;;;;;5.22;93.08;97736.59;1935619;84;21390;-79
2021/12/02 02:10:59;;;;;;;3.16;1.16;;;;;;;5.15;93.99;97728.94;1927407;84;20859;-80
2021/12/02 02:32:01;;;;;;;4.21;0.68;;;;;;;4.87;93.58;97735.22;1937472;73;20388;-80
2021/12/02 02:41:00;;;;;;;3.30;0.86;;;;;;;4.89;93.54;97730.91;1935117;84;20473;-80
2021/12/02 02:45:23;;;;;;;2.47;0.60;;;;;;;4.90;93.45;97737.75;1929376;84;21057;-80
2021/12/02 05:25:18;;;;;;;2.13;0.86;;;;;;;4.97;91.76;97735.97;1990426;73;20360;-77
2021/12/02 05:32:12;;;;;;;;;;;;;;;4.90;92.01;97737.75;1939118;73;20832;-77
2021/12/02 05:50:29;;;;;;;2.14;0.63;;;;;;;4.81;91.88;97735.22;1924827;84;20487;-75
2021/12/02 06:48:14;;;;;;;1.74;0.77;;;;;;;4.67;94.14;97752.47;2088554;73;20368;-81
2021/12/02 06:51:19;;;;;;;1.42;0.76;;;;;;;4.65;93.80;97760.22;1941797;84;20316;-80
2021/12/02 06:54:22;;;;;;;1.71;1.00;;;;;;;4.64;93.74;97757.66;1942389;84;21002;-80
2021/12/02 06:57:25;;;;;;;2.64;0.80;;;;;;;4.63;93.90;97767.06;1935065;84;20390;-79
2021/12/02 07:00:28;;;;;;;2.10;0.90;;;;;;;4.61;93.86;97761.09;1936226;82;24259;-79
2021/12/02 07:03:31;;;;;;;1.98;0.90;;;;;;;4.60;93.91;97768.81;1936388;84;20963;-78
2021/12/02 07:06:36;;;;;;;2.09;0.81;;;;;;;4.59;93.93;97769.69;1936825;84;20340;-79
2021/12/02 07:09:39;;;;;;;2.78;1.09;;;;;;;4.57;94.02;97772.28;1936276;84;20468;-79
2021/12/02 07:12:43;;;;;;;4.40;1.20;;;;;;;4.57;94.11;97774.84;1937627;84;20398;-79
2021/12/02 07:15:51;;;;;;;4.05;1.38;;;;;;;4.55;94.21;97780.00;1936584;81;23403;-79
2021/12/02 07:18:56;;;;;;;2.70;1.21;;;;;;;4.55;94.09;97780.00;1934447;84;20417;-79
2021/12/02 07:21:59;;;;;;;3.05;1.05;;;;;;;4.53;94.15;97786.00;1937586;84;20352;-79
2021/12/02 07:25:03;;;;;;;1.36;0.80;;;;;;;4.49;93.84;97784.34;1937791;84;20954;-79
2021/12/02 07:28:08;;;;;;;2.35;0.93;;;;;;;4.47;93.75;97781.75;1938619;84;20360;-79
2021/12/02 07:31:11;;;;;;;2.97;0.91;;;;;;;4.47;93.48;97796.31;1936475;81;23522;-79
2021/12/02 07:34:16;;;;;;;1.65;0.86;;;;;;;4.43;93.44;97798.06;1937565;84;20371;-79
2021/12/02 07:37:19;;;;;;;1.34;0.93;;;;;;;4.42;93.67;97805.78;1937930;84;20424;-79
2021/12/02 07:40:23;;;;;;;2.21;0.85;;;;;;;4.43;93.36;97804.91;1937436;84;20731;-79
2021/12/02 07:43:27;;;;;;;2.28;0.80;;;;;;;4.44;93.13;97806.63;1937646;84;20498;-79
2021/12/02 07:46:30;;;;;;;2.16;0.90;;;;;;;4.44;92.94;97815.16;1937173;82;28413;-79
2021/12/02 07:49:33;;;;;;;4.41;0.95;;;;;;;4.45;92.85;97821.16;1937756;84;20348;-79
2021/12/02 07:52:49;;;;;;;1.69;0.82;;;;;;;4.42;92.20;97829.75;1938422;84;21065;-80
2021/12/02 07:55:54;;;;;;;2.63;0.70;;;;;;;4.42;92.01;97827.19;1938164;84;20445;-80
2021/12/02 07:59:40;;;;;;;2.33;0.90;;;;;;;4.38;91.18;97832.34;1946302;83;20293;-81
2021/12/02 08:17:22;;;;;;;2.99;0.70;;;;;;;4.40;90.86;97852.03;1961587;73;20372;-80
2021/12/02 09:05:16;;;;;;;1.84;0.43;;;;;;;4.33;85.21;97906.88;1988763;74;20304;-80
2021/12/02 09:08:23;;;;;;;2.55;0.50;;;;;;;4.32;84.96;97901.75;1949693;84;20396;-79
2021/12/02 09:11:28;;;;;;;2.09;0.73;;;;;;;4.32;84.27;97902.63;1946850;83;20368;-80
2021/12/02 09:14:31;;;;;;;2.47;0.40;;;;;;;4.33;83.69;97918.88;1946662;84;20395;-80
2021/12/02 09:17:34;;;;;;;2.36;0.63;;;;;;;4.32;83.14;97912.03;1949025;81;53719;-80
2021/12/02 09:20:37;;;;;;;2.28;0.80;;;;;;;4.36;83.60;97917.16;1956654;83;20353;-80
2021/12/02 09:23:39;;;;;;;2.44;0.30;;;;;;;4.37;82.46;97918.00;1946641;83;20408;-80
2021/12/02 09:26:42;;;;;;;1.51;0.30;;;;;;;4.41;82.75;97925.69;1954503;84;20301;-80
2021/12/02 09:29:45;;;;;;;0.45;0.30;;;;;;;4.48;82.62;97929.06;1952191;84;20324;-80
2021/12/02 09:32:48;;;;;;;0.90;0.40;;;;;;;4.49;82.28;97936.81;1948214;81;30083;-80
2021/12/02 09:35:50;;;;;;;0.60;0.30;;;;;;;4.43;80.75;97941.09;1949539;83;20354;-80
2021/12/02 09:38:53;;;;;;;2.19;0.40;;;;;;;4.41;80.79;97946.25;1952235;84;20300;-80
2021/12/02 09:41:56;;;;;;;0.85;0.30;;;;;;;4.41;80.93;97935.13;1949879;84;20346;-80
2021/12/02 09:45:04;;;;;;;2.31;0.40;;;;;;;4.39;80.82;97947.97;1949754;84;20289;-81
2021/12/02 09:48:09;;;;;;;4.64;0.35;;;;;;;4.40;80.82;97957.38;1952324;83;20365;-81
2021/12/02 09:51:15;;;;;;;1.30;0.40;;;;;;;4.39;80.69;97958.25;1947697;84;20320;-80
2021/12/02 09:54:45;;;;;;;1.46;0.40;;;;;;;4.40;80.21;97952.25;1950100;84;20423;-80
2021/12/02 09:57:59;;;;;;;0.71;0.30;;;;;;;4.47;79.82;97947.94;1943941;84;20365;-80
2021/12/02 10:01:12;;;;;;;1.84;0.30;;;;;;;4.49;79.51;97952.22;1939098;81;22643;-80
2021/12/02 10:04:15;;;;;;;0.69;0.30;;;;;;;4.53;79.17;97945.34;1939156;84;20474;-80
2021/12/02 10:07:27;;;;;;;1.86;0.40;;;;;;;4.48;78.09;97955.63;1938755;84;20352;-80
2021/12/02 10:10:41;;;;;;;1.59;0.77;;;;;;;4.50;78.16;97953.94;1938787;84;20376;-80
2021/12/02 10:13:49;;;;;;;1.23;0.40;;;;;;;4.61;78.58;97945.31;1936405;84;20336;-80
2021/12/02 10:17:37;;;;;;;1.88;0.52;;;;;;;4.68;78.48;97932.44;1938627;81;27527;-80
2021/12/02 10:20:43;;;;;;;1.52;0.34;;;;;;;4.70;78.50;97935.00;1938602;84;20272;-80
2021/12/02 10:23:47;;;;;;;1.98;0.30;;;;;;;4.64;77.71;97940.16;1939141;84;20512;-80
2021/12/02 10:26:54;;;;;;;1.84;0.30;;;;;;;4.64;78.18;97929.88;1938312;84;20440;-80
2021/12/02 10:30:24;;;;;;;0.82;0.41;;;;;;;4.60;78.23;97931.59;1938405;84;20435;-80
2021/12/02 10:33:31;;;;;;;2.06;0.30;;;;;;;4.60;78.74;97941.03;1938805;84;20502;-80
2021/12/02 10:36:39;;;;;;;0.65;0.30;;;;;;;4.55;78.16;97941.06;1939295;84;20320;-80
2021/12/02 10:39:54;;;;;;;1.21;0.31;;;;;;;4.52;78.99;97939.38;1938573;84;20405;-80
2021/12/02 10:43:05;;;;;;;1.59;0.30;;;;;;;4.45;79.28;97945.38;1938972;84;20176;-80
2021/12/02 10:46:13;;;;;;;1.11;0.50;;;;;;;4.43;79.26;97938.53;1934785;84;20376;-80
2021/12/02 10:49:16;;;;;;;1.52;0.32;;;;;;;4.37;78.98;97939.41;1934486;84;20438;-80
2021/12/02 10:52:31;;;;;;;0.93;0.40;;;;;;;4.45;79.18;97934.22;1939962;84;20191;-81
2021/12/02 10:55:34;;;;;;;1.14;0.24;;;;;;;4.58;79.35;97924.78;1935221;84;20969;-80
2021/12/02 10:58:36;;;;;;;6.85;1.27;;;;;;;4.65;78.80;97929.00;1941067;84;20368;-80
2021/12/02 11:01:40;;;;;;;1.65;0.40;;;;;;;4.71;78.48;97929.00;1940442;81;24691;-80
2021/12/02 11:04:50;;;;;;;1.60;0.40;;;;;;;4.79;78.73;97932.38;1940408;84;20401;-80
2021/12/02 11:08:04;;;;;;;1.31;0.39;;;;;;;4.90;78.97;97927.19;1941503;84;20351;-80
2021/12/02 11:11:21;;;;;;;2.14;0.34;;;;;;;5.01;79.06;97926.25;1941480;84;20448;-80
2021/12/02 11:14:28;;;;;;;0.40;0.30;;;;;;;5.15;78.98;97926.16;1941106;84;20385;-80
2021/12/02 11:17:34;;;;;;;1.08;0.39;;;;;;;5.27;78.69;97925.25;1939319;81;24413;-80
2021/12/02 11:20:43;;;;;;;0.96;0.29;;;;;;;5.33;77.37;97926.03;1941179;84;20324;-80
2021/12/02 11:23:47;;;;;;;1.08;0.30;;;;;;;5.44;76.91;97925.97;1940773;84;20418;-80
2021/12/02 11:27:09;;;;;;;0.76;0.22;;;;;;;5.54;76.55;97927.59;1939719;84;20196;-80
2021/12/02 11:38:26;;;;;;;0.30;0.29;;;;;;;5.75;72.29;97934.31;2039254;73;20204;-78
2021/12/02 11:46:50;;;;;;;0.80;0.34;;;;;;;5.74;70.90;97943.75;1928289;73;54812;-79
2021/12/02 13:26:07;;;;;;;0.20;0.20;;;;;;;5.23;71.76;98003.31;1927541;84;20351;-81
2021/12/02 13:29:14;;;;;;;0.57;0.20;;;;;;;5.24;71.66;98008.47;1927903;84;20347;-81
2021/12/02 13:32:17;;;;;;;1.91;0.55;;;;;;;5.18;71.20;98003.31;1927800;82;26657;-80
2021/12/02 13:35:25;;;;;;;0.28;0.24;;;;;;;5.12;70.39;98000.81;1929912;84;20444;-80
2021/12/02 13:38:28;;;;;;;0.39;0.20;;;;;;;5.01;69.93;98010.28;1929618;84;20350;-81
2021/12/02 13:41:39;;;;;;;0.63;0.19;;;;;;;4.91;71.10;98011.19;1930929;84;20386;-81
2021/12/02 13:44:49;;;;;;;0.44;0.24;;;;;;;4.84;72.04;98015.50;1933175;84;20402;-80
2021/12/02 13:48:25;;;;;;;1.48;0.35;;;;;;;4.74;72.91;98022.41;1923542;82;24921;-80
2021/12/02 13:55:26;;;;;;;0.51;0.30;;;;;;;4.54;73.26;98034.47;1929654;84;20362;-81
2021/12/02 13:58:31;;;;;;;0.20;0.20;;;;;;;4.52;73.52;98036.19;1925874;84;20748;-81
2021/12/02 14:01:34;;;;;;;0.29;0.20;;;;;;;4.50;73.75;98041.31;1927685;82;23910;-80
2021/12/02 14:04:46;;;;;;;2.05;0.30;;;;;;;4.54;74.15;98039.59;1930459;84;20403;-81
2021/12/02 14:07:49;;;;;;;1.45;0.73;;;;;;;4.54;73.20;98048.16;1931215;84;20375;-81
2021/12/02 14:10:54;;;;;;;0.59;0.20;;;;;;;4.54;73.77;98047.31;1932876;84;20520;-81
2021/12/02 14:13:57;;;;;;;0.28;0.20;;;;;;;4.55;73.86;98059.28;1932813;84;20330;-81
2021/12/02 14:17:20;;;;;;;0.40;0.20;;;;;;;4.53;74.17;98068.72;1930935;82;23927;-81
2021/12/02 14:20:41;;;;;;;2.20;0.30;;;;;;;4.47;73.76;98073.84;1935225;84;20376;-81
2021/12/02 14:23:48;;;;;;;1.00;0.35;;;;;;;4.49;74.10;98067.88;1929881;84;20519;-81
2021/12/02 14:26:50;;;;;;;0.64;0.26;;;;;;;4.49;74.32;98077.31;1929582;84;20435;-81
2021/12/02 14:30:08;;;;;;;0.30;0.30;;;;;;;4.46;72.99;98077.28;1929209;84;21376;-81
2021/12/02 14:33:12;;;;;;;0.61;0.35;;;;;;;4.35;71.69;98086.75;1930217;82;21866;-81
2021/12/02 14:36:18;;;;;;;0.96;0.30;;;;;;;4.23;71.47;98096.16;1930389;84;20327;-81
2021/12/02 14:39:22;;;;;;;1.61;0.20;;;;;;;4.21;71.82;98109.84;1930092;84;20378;-81
2021/12/02 14:42:24;;;;;;;1.29;0.34;;;;;;;4.17;71.98;98111.59;1930544;84;20389;-81
2021/12/02 14:45:28;;;;;;;0.66;0.31;;;;;;;4.14;72.99;98115.88;1928440;81;29531;-81
2021/12/02 14:48:31;;;;;;;1.27;0.30;;;;;;;4.14;73.96;98116.72;1929475;84;20382;-81
2021/12/02 14:51:58;;;;;;;0.68;0.45;;;;;;;4.15;73.97;98130.41;1929879;84;20478;-80
2021/12/02 14:55:07;;;;;;;0.66;0.30;;;;;;;4.14;73.79;98141.56;1929370;84;20394;-80
2021/12/02 14:58:10;;;;;;;;;;;;;;;4.11;73.60;98141.53;1927822;84;20362;-81
2021/12/02 15:01:14;;;;;;;0.31;0.30;;;;;;;4.03;73.48;98136.38;1929433;82;25973;-81
2021/12/02 15:04:19;;;;;;;0.88;0.39;;;;;;;3.94;73.12;98138.94;1929653;84;20425;-81
2021/12/02 15:07:33;;;;;;;1.81;0.40;;;;;;;3.90;73.28;98160.31;1926726;84;20462;-80
2021/12/02 15:10:39;;;;;;;0.67;0.31;;;;;;;3.88;73.32;98170.59;1928583;84;21091;-80
2021/12/02 15:13:43;;;;;;;0.75;0.30;;;;;;;3.85;73.20;98172.31;1928205;84;20390;-80
2021/12/02 15:16:53;;;;;;;1.24;0.40;;;;;;;3.81;73.22;98179.16;1925980;82;25892;-80
2021/12/02 15:19:56;;;;;;;0.40;0.25;;;;;;;3.77;73.19;98182.56;1928900;84;20375;-80
2021/12/02 15:23:00;;;;;;;0.89;0.44;;;;;;;3.76;73.55;98180.81;1928589;84;21247;-78
2021/12/02 15:26:07;;;;;;;0.95;0.40;;;;;;;3.74;73.41;98190.22;1927616;84;20511;-79
2021/12/02 15:29:10;;;;;;;0.49;0.40;;;;;;;3.67;72.75;98193.63;1926923;84;20358;-79
2021/12/02 15:32:14;;;;;;;3.29;0.59;;;;;;;3.63;73.12;98200.47;1926380;82;24179;-80
2021/12/02 15:35:18;;;;;;;0.63;0.32;;;;;;;3.62;73.68;98206.47;1928401;84;20362;-80
2021/12/02 15:38:21;;;;;;;0.51;0.34;;;;;;;3.56;73.98;98223.53;1927310;84;20368;-79
2021/12/02 15:41:27;;;;;;;2.01;0.50;;;;;;;3.50;74.92;98216.66;1929169;84;20362;-80
2021/12/02 15:44:32;;;;;;;0.89;0.40;;;;;;;3.45;74.86;98227.78;1928252;84;20831;-80
2021/12/02 15:47:36;;;;;;;0.52;0.50;;;;;;;3.39;75.33;98233.72;1926215;82;23596;-79
2021/12/02 15:50:39;;;;;;;1.34;0.60;;;;;;;3.31;75.42;98240.50;1928768;84;20354;-79
2021/12/02 15:53:42;;;;;;;0.61;0.40;;;;;;;3.22;75.91;98246.44;1928216;84;20354;-80
2021/12/02 15:56:46;;;;;;;1.08;0.50;;;;;;;3.22;76.36;98250.69;1929061;84;20400;-80
2021/12/02 15:59:49;;;;;;;1.88;0.77;;;;;;;3.22;76.34;98261.81;1929461;84;20400;-80
2021/12/02 16:02:54;;;;;;;4.10;1.51;;;;;;;3.24;77.05;98267.84;1923062;82;33266;-79
2021/12/02 16:09:41;;;;;;;2.72;0.60;;;;;;;3.29;76.86;98286.69;1923836;84;20438;-80
2021/12/02 16:12:44;;;;;;;2.15;0.80;;;;;;;3.27;76.38;98295.22;1924134;84;20340;-80
2021/12/02 16:15:46;;;;;;;1.52;0.61;;;;;;;3.25;76.73;98300.34;1920454;82;27555;-79
2021/12/02 16:18:49;;;;;;;2.09;0.85;;;;;;;3.27;76.99;98306.34;1928984;84;20394;-80
2021/12/02 16:21:52;;;;;;;5.64;1.13;;;;;;;3.27;76.68;98300.34;1928524;84;20334;-79
2021/12/02 16:24:57;;;;;;;1.27;0.80;;;;;;;3.27;77.14;98305.47;1921279;84;20407;-79
2021/12/02 16:28:01;;;;;;;1.70;0.59;;;;;;;3.24;77.36;98318.28;1928723;84;20342;-80
2021/12/02 16:31:04;;;;;;;2.22;0.84;;;;;;;3.22;77.64;98322.53;1927604;82;26846;-80
2021/12/02 16:34:07;;;;;;;2.36;0.98;;;;;;;3.21;77.85;98325.94;1928595;84;20350;-80
2021/12/02 16:37:10;;;;;;;1.92;0.73;;;;;;;3.17;77.67;98340.44;1929413;84;20354;-79
2021/12/02 16:40:16;;;;;;;2.09;0.73;;;;;;;3.15;77.90;98334.44;1928480;84;21810;-79
2021/12/02 16:43:20;;;;;;;3.24;0.84;;;;;;;3.12;77.58;98331.88;1928420;84;20354;-79
2021/12/02 16:46:30;;;;;;;3.59;1.94;;;;;;;3.13;78.18;98343.84;1926934;84;20347;-79
2021/12/02 16:49:32;;;;;;;8.26;3.71;;;;;;;3.14;78.13;98343.00;1927874;84;20470;-80
2021/12/02 16:52:35;;;;;;;8.19;3.60;;;;;;;3.14;77.98;98352.41;1927550;84;20896;-79
2021/12/02 16:55:38;;;;;;;4.59;3.14;;;;;;;3.14;78.31;98366.06;1927640;84;20444;-80
2021/12/02 16:58:41;;;;;;;4.25;1.40;;;;;;;3.16;78.53;98368.66;1927112;84;20368;-79
2021/12/02 17:01:48;;;;;;;3.59;1.33;;;;;;;3.13;77.76;98373.75;1926456;82;25323;-80
2021/12/02 17:04:51;;;;;;;3.36;0.91;;;;;;;3.14;78.11;98383.16;1926646;84;20975;-79
2021/12/02 17:07:54;;;;;;;1.52;1.00;;;;;;;3.12;78.33;98382.31;1927135;84;20378;-80
2021/12/02 17:11:01;;;;;;;1.46;0.86;;;;;;;3.15;78.82;98382.31;1926920;84;20354;-80
2021/12/02 17:14:04;;;;;;;2.03;0.93;;;;;;;3.17;79.29;98388.31;1927048;84;20942;-79
2021/12/02 17:17:07;;;;;;;1.89;0.79;;;;;;;3.18;79.20;98398.59;1925637;81;22021;-80
2021/12/02 17:20:10;;;;;;;1.88;0.80;;;;;;;3.15;79.08;98413.09;1926442;84;20395;-80
2021/12/02 17:23:14;;;;;;;2.26;0.80;;;;;;;3.16;79.12;98404.56;1927151;84;20368;-80
2021/12/02 17:26:19;;;;;;;2.72;0.89;;;;;;;3.17;79.40;98411.41;1927070;84;20986;-80
2021/12/02 17:29:22;;;;;;;1.02;0.90;;;;;;;3.18;79.44;98413.97;1927198;84;20366;-80
2021/12/02 17:32:28;;;;;;;1.20;0.77;;;;;;;3.17;79.38;98424.22;1925421;82;23756;-79
2021/12/02 17:35:30;;;;;;;1.25;0.70;;;;;;;3.16;79.50;98425.06;1928678;84;20362;-79
2021/12/02 17:38:34;;;;;;;0.77;0.77;;;;;;;3.15;79.63;98428.50;1927375;84;20400;-79
2021/12/02 17:41:38;;;;;;;1.02;0.63;;;;;;;3.10;79.83;98420.75;1928474;84;20339;-80
2021/12/02 17:44:44;;;;;;;1.11;0.81;;;;;;;3.09;79.93;98418.19;1929327;84;20864;-79
2021/12/02 17:47:47;;;;;;;1.66;0.60;;;;;;;3.01;79.55;98425.78;1927701;81;27279;-80
2021/12/02 17:50:52;;;;;;;1.52;0.70;;;;;;;2.93;79.51;98427.41;1927164;84;20346;-79
2021/12/02 17:53:55;;;;;;;1.91;1.05;;;;;;;2.85;79.75;98426.47;1928034;84;20382;-80
2021/12/02 17:56:57;;;;;;;2.80;0.90;;;;;;;2.75;79.89;98435.78;1928107;84;20359;-79
2021/12/02 18:00:00;;;;;;;4.43;1.01;;;;;;;2.58;80.00;98440.72;1927953;84;20330;-79
2021/12/02 18:03:03;;;;;;;1.09;0.57;;;;;;;2.45;80.55;98443.94;1928476;82;26831;-80
2021/12/02 18:06:06;;;;;;;2.47;1.26;;;;;;;2.33;80.99;98448.91;1929003;84;20589;-80
2021/12/02 18:09:09;;;;;;;1.19;0.80;;;;;;;2.17;81.58;98460.69;1928022;84;20346;-80
2021/12/02 18:12:12;;;;;;;2.97;1.90;;;;;;;2.03;82.27;98467.28;1928415;84;20334;-80
2021/12/02 18:15:18;;;;;;;1.40;1.10;;;;;;;1.94;82.91;98469.72;1929130;84;20351;-80
2021/12/02 18:18:22;;;;;;;1.41;0.96;;;;;;;1.86;83.26;98464.50;1930305;84;20359;-80
2021/12/02 18:21:25;;;;;;;1.14;0.76;;;;;;;1.81;83.42;98469.53;1929581;84;20366;-80
2021/12/02 18:24:28;;;;;;;2.08;1.00;;;;;;;1.72;83.76;98482.19;1929933;84;20910;-80
2021/12/02 18:27:31;;;;;;;1.19;0.91;;;;;;;1.70;84.36;98491.53;1930550;84;20898;-79
2021/12/02 18:30:33;;;;;;;2.49;1.10;;;;;;;1.70;84.70;98503.47;1927744;84;20435;-80
2021/12/02 18:33:38;;;;;;;2.39;1.10;;;;;;;1.71;85.17;98502.63;1929360;84;20334;-80
2021/12/02 18:36:41;;;;;;;2.06;1.20;;;;;;;1.75;85.53;98505.25;1928393;84;20392;-80
2021/12/02 18:39:44;;;;;;;1.00;0.90;;;;;;;1.80;85.78;98510.47;1929141;84;20408;-80
2021/12/02 18:42:46;;;;;;;3.85;1.17;;;;;;;1.85;85.83;98505.41;1928034;84;20342;-79
2021/12/02 18:45:49;;;;;;;1.76;0.98;;;;;;;1.87;85.92;98512.28;1928462;84;20338;-80
2021/12/02 18:48:52;;;;;;;2.96;1.70;;;;;;;1.85;85.78;98507.97;1929211;84;20372;-80
2021/12/02 18:51:55;;;;;;;2.03;1.26;;;;;;;1.81;85.67;98510.50;1930131;84;20432;-80
2021/12/02 18:54:57;;;;;;;2.22;1.27;;;;;;;1.75;85.46;98517.19;1930075;84;21000;-80
2021/12/02 18:58:01;;;;;;;3.54;1.39;;;;;;;1.71;85.36;98512.88;1929366;84;20786;-80
2021/12/02 19:01:04;;;;;;;2.05;1.20;;;;;;;1.65;85.34;98531.53;1928912;84;20354;-80
2021/12/02 19:04:07;;;;;;;2.36;1.55;;;;;;;1.51;85.02;98535.56;1926206;84;20390;-80
2021/12/02 19:07:30;;;;;;;1.70;1.40;;;;;;;1.38;84.93;98536.16;1929715;84;20342;-80
2021/12/02 19:27:05;;;;;;;1.92;1.09;;;;;;;0.77;86.24;98594.63;1930084;84;20537;-80
2021/12/02 19:30:09;;;;;;;2.38;1.24;;;;;;;0.68;86.52;98604.63;1930262;84;20362;-80
2021/12/02 19:33:12;;;;;;;3.22;1.25;;;;;;;0.57;86.79;98616.31;1930616;82;39850;-80
2021/12/02 19:36:16;;;;;;;2.44;1.40;;;;;;;0.47;86.76;98622.88;1930802;84;20342;-80
2021/12/02 19:39:20;;;;;;;3.54;1.40;;;;;;;0.42;87.25;98627.03;1931997;84;20385;-80
2021/12/02 19:42:24;;;;;;;3.01;1.34;;;;;;;0.33;87.26;98631.06;1931292;84;20357;-80
2021/12/02 19:45:28;;;;;;;4.39;1.27;;;;;;;0.23;87.27;98645.31;1932208;84;21312;-80
2021/12/02 19:48:36;;;;;;;4.16;1.67;;;;;;;0.15;87.63;98647.66;1928187;84;21197;-78
2021/12/02 19:51:39;;;;;;;2.78;1.33;;;;;;;0.11;88.25;98645.00;1929536;84;20351;-80
2021/12/02 19:54:44;;;;;;;1.47;1.14;;;;;;;0.12;88.69;98651.81;1925582;84;20343;-80
2021/12/02 19:57:56;;;;;;;3.07;1.61;;;;;;;0.08;88.94;98655.13;1928962;84;20231;-81
2021/12/02 20:01:11;;;;;;;1.14;1.02;;;;;;;0.10;89.20;98663.69;1931563;84;20174;-81
2021/12/02 20:04:29;;;;;;;2.45;1.04;;;;;;;0.12;89.20;98669.69;1931837;84;20256;-80
2021/12/02 20:07:32;;;;;;;2.59;1.54;;;;;;;0.15;89.49;98664.66;1931424;84;20284;-80
2021/12/02 20:16:07;;;;;;;;;;;;;;;;;;;;;
2021/12/02 20:24:25;;;;;;;1.61;1.40;;;;;;;0.31;90.77;98679.53;1939737;84;20357;-79
2021/12/02 20:28:28;;;;;;;1.66;1.29;;;;;;;0.33;90.86;98684.66;1942512;84;20364;-79
2021/12/02 20:32:52;;;;;;;2.26;1.47;;;;;;;0.32;90.91;98693.16;1937124;84;20340;-79
2021/12/02 20:35:55;;;;;;;2.40;1.40;;;;;;;0.26;90.91;98693.88;1941055;84;20148;-80
2021/12/02 20:39:11;;;;;;;1.63;1.40;;;;;;;0.23;90.82;98691.25;1939167;84;20541;-80
2021/12/02 20:42:14;;;;;;;1.27;1.17;;;;;;;0.22;90.77;98707.41;1938312;84;20211;-80
2021/12/02 20:45:19;;;;;;;2.47;1.41;;;;;;;0.14;90.49;98706.31;1945077;83;20314;-81
2021/12/02 20:48:34;;;;;;;4.96;1.33;;;;;;;0.06;90.45;98707.81;1944885;84;20203;-80
2021/12/02 20:51:41;;;;;;;2.96;1.33;;;;;;;0.03;90.52;98716.25;1943695;84;20352;-80
2021/12/02 20:54:44;;;;;;;3.30;1.39;;;;;;;-0.03;90.44;98727.16;1942146;84;20183;-80
2021/12/02 20:57:48;;;;;;;2.13;1.38;;;;;;;-0.11;90.55;98732.88;1942311;84;21487;-80
2021/12/02 21:00:52;;;;;;;2.26;1.42;;;;;;;-0.15;90.63;98733.63;1937711;84;20314;-80
2021/12/02 21:04:12;;;;;;;1.46;1.36;;;;;;;-0.20;90.35;98742.81;1943929;84;20183;-80
2021/12/02 21:07:24;;;;;;;1.50;1.40;;;;;;;-0.23;90.50;98747.84;1944995;84;20168;-81
2021/12/02 21:10:31;;;;;;;5.03;1.57;;;;;;;-0.31;90.32;98756.16;1943264;84;20252;-80
2021/12/02 21:13:52;;;;;;;1.42;1.32;;;;;;;-0.36;90.30;98765.38;1949342;84;20293;-80
2021/12/02 21:16:58;;;;;;;2.22;1.42;;;;;;;-0.35;90.58;98768.78;1946844;84;20197;-80
2021/12/02 21:20:07;;;;;;;1.73;1.23;;;;;;;-0.36;90.60;98769.59;1945524;84;20203;-80
2021/12/02 21:23:12;;;;;;;1.80;1.34;;;;;;;-0.37;90.76;98771.28;1942349;84;20171;-80
2021/12/02 21:26:17;;;;;;;1.58;1.42;;;;;;;-0.40;91.11;98772.88;1946381;84;20242;-80
2021/12/02 21:29:21;;;;;;;4.97;1.43;;;;;;;-0.43;91.25;98775.34;1951250;84;20636;-80
2021/12/02 21:32:32;;;;;;;2.29;1.49;;;;;;;-0.44;91.45;98787.22;1946692;84;20143;-81
2021/12/02 21:36:16;;;;;;;1.67;1.57;;;;;;;-0.47;91.40;98792.25;1947589;84;20184;-80
2021/12/02 21:39:43;;;;;;;1.44;1.20;;;;;;;-0.52;91.31;98798.91;1942264;84;20202;-80
2021/12/02 21:43:11;;;;;;;2.70;1.43;;;;;;;-0.57;91.07;98810.63;1944174;84;20151;-80
2021/12/02 21:47:15;;;;;;;1.61;1.51;;;;;;;-0.61;91.04;98819.00;1942975;84;20379;-81
2021/12/02 21:55:46;;;;;;;2.22;1.40;;;;;;;-0.75;90.78;98838.09;1942439;84;20242;-78
2021/12/02 22:02:57;;;;;;;2.28;2.08;;;;;;;-0.80;91.72;98849.84;1941980;84;20184;-80
2021/12/02 22:06:12;;;;;;;2.73;1.86;;;;;;;-0.71;92.47;98857.81;1939299;84;20160;-80
2021/12/02 22:09:15;;;;;;;2.57;1.74;;;;;;;-0.69;92.78;98851.94;1935689;84;20212;-77
2021/12/02 22:12:25;;;;;;;2.80;2.11;;;;;;;-0.61;93.00;98852.16;1936240;84;20351;-80
2021/12/02 22:15:40;;;;;;;2.17;1.98;;;;;;;-0.59;92.91;98854.75;1920669;84;20210;-79
2021/12/02 22:18:44;;;;;;;1.96;1.71;;;;;;;-0.56;92.89;98852.28;1933276;84;20215;-79
2021/12/02 22:21:53;;;;;;;3.00;1.94;;;;;;;-0.54;92.83;98853.19;1932762;84;20899;-78
2021/12/02 22:25:13;;;;;;;2.13;1.79;;;;;;;-0.54;92.71;98865.94;1931728;84;20228;-79
2021/12/02 22:28:22;;;;;;;1.87;1.73;;;;;;;-0.54;92.45;98868.50;1934517;84;20352;-79
2021/12/02 22:31:29;;;;;;;3.28;1.65;;;;;;;-0.57;92.30;98881.16;1932243;84;20213;-79
2021/12/02 22:34:33;;;;;;;2.30;2.03;;;;;;;-0.66;91.89;98876.66;1928436;84;20423;-78
2021/12/02 22:37:41;;;;;;;2.86;2.03;;;;;;;-0.69;91.74;98886.75;1931093;84;20402;-79
2021/12/02 22:40:49;;;;;;;4.18;2.33;;;;;;;-0.75;91.63;98886.53;1929044;84;20301;-78
2021/12/02 22:44:25;;;;;;;2.07;1.97;;;;;;;-0.80;91.71;98888.94;1931351;84;20892;-79
2021/12/02 22:47:54;;;;;;;4.48;2.04;;;;;;;-0.80;91.87;98899.13;1934624;84;20752;-79
2021/12/02 22:51:00;;;;;;;2.30;1.87;;;;;;;-0.82;91.83;98900.78;1934113;84;20211;-79
2021/12/02 22:54:07;;;;;;;2.57;2.37;;;;;;;-0.83;91.89;98903.28;1927241;84;20176;-79
2021/12/02 22:57:25;;;;;;;2.31;2.06;;;;;;;-0.86;91.86;98904.03;1925354;84;21043;-79
2021/12/02 23:00:39;;;;;;;2.46;2.23;;;;;;;-0.90;91.76;98904.72;1921988;84;20243;-78
2021/12/02 23:03:59;;;;;;;7.27;2.58;;;;;;;-0.92;91.83;98907.22;1926306;84;20257;-79
2021/12/02 23:07:48;;;;;;;3.06;2.13;;;;;;;-1.00;91.77;98918.88;1924355;84;20376;-78
2021/12/02 23:11:11;;;;;;;3.47;2.67;;;;;;;-0.96;92.25;98924.94;1926606;84;20222;-79
2021/12/02 23:14:41;;;;;;;2.34;2.14;;;;;;;-0.94;92.31;98921.59;1923624;84;20242;-79
2021/12/02 23:17:52;;;;;;;3.48;2.46;;;;;;;-0.91;92.49;98923.38;1926058;84;20177;-78
2021/12/02 23:21:35;;;;;;;4.02;2.64;;;;;;;-0.88;92.70;98926.06;1927347;84;20358;-79
2021/12/02 23:25:10;;;;;;;2.79;2.50;;;;;;;-0.84;92.94;98934.66;1922496;84;20211;-79
2021/12/02 23:28:54;;;;;;;4.99;2.92;;;;;;;-0.80;93.14;98947.56;1927268;84;20539;-79
2021/12/02 23:32:24;;;;;;;4.17;2.71;;;;;;;-0.74;93.43;98949.44;1921838;84;20345;-79
2021/12/02 23:35:43;;;;;;;3.64;2.66;;;;;;;-0.71;93.65;98937.69;1924986;84;20254;-79
2021/12/02 23:38:50;;;;;;;2.48;2.24;;;;;;;-0.68;93.67;98942.88;1924746;84;20176;-79
2021/12/02 23:41:57;;;;;;;3.01;2.71;;;;;;;-0.64;93.69;98941.28;1927346;84;20657;-78
2021/12/02 23:44:59;;;;;;;3.10;2.42;;;;;;;-0.64;93.57;98941.28;1926046;84;20189;-78
2021/12/02 23:48:04;;;;;;;2.70;2.50;;;;;;;-0.67;93.50;98936.97;1927756;84;20188;-79
2021/12/02 23:51:23;;;;;;;5.08;2.89;;;;;;;-0.67;93.52;98936.09;1925462;84;20192;-79
2021/12/02 23:54:41;;;;;;;3.81;3.20;;;;;;;-0.64;93.57;98939.59;1925718;84;20220;-79
2021/12/02 23:57:58;;;;;;;6.41;3.48;;;;;;;-0.64;93.49;98949.78;1925248;84;20391;-79
